sensor_id;sensor_type;location;lat;lon;timestamp;P1;durP1;ratioP1;P2;durP2;ratioP2
5379;SDS011;2713;42.680;23.310;2023-06-10T00:01:23;8.40;;;7.50;;
5379;SDS011;2713;42.680;23.310;2023-06-10T00:03:50;11.47;;;10.37;;
5379;SDS011;2713;42.680;23.310;2023-06-10T00:06:18;10.93;;;9.83;;
5379;SDS011;2713;42.680;23.310;2023-06-10T00:08:46;10.40;;;9.30;;
5379;SDS011;2713;42.680;23.310;2023-06-10T00:11:13;9.83;;;8.93;;
5379;SDS011;2713;42.680;23.310;2023-06-10T00:13:40;11.87;;;10.60;;
5379;SDS011;2713;42.680;23.310;2023-06-10T00:16:06;11.80;;;10.33;;
5379;SDS011;2713;42.680;23.310;2023-06-10T00:18:35;10.33;;;9.07;;
5379;SDS011;2713;42.680;23.310;2023-06-10T00:21:02;10.33;;;9.23;;
5379;SDS011;2713;42.680;23.310;2023-06-10T00:23:30;9.30;;;8.00;;
5379;SDS011;2713;42.680;23.310;2023-06-10T00:26:03;9.17;;;7.23;;
5379;SDS011;2713;42.680;23.310;2023-06-10T00:28:30;7.90;;;7.20;;
5379;SDS011;2713;42.680;23.310;2023-06-10T00:30:57;8.07;;;7.27;;
5379;SDS011;2713;42.680;23.310;2023-06-10T00:33:24;7.83;;;7.00;;
5379;SDS011;2713;42.680;23.310;2023-06-10T00:35:52;8.13;;;7.27;;
5379;SDS011;2713;42.680;23.310;2023-06-10T00:38:20;8.07;;;7.33;;
5379;SDS011;2713;42.680;23.310;2023-06-10T00:40:47;7.67;;;6.80;;
5379;SDS011;2713;42.680;23.310;2023-06-10T00:43:14;8.13;;;7.30;;
5379;SDS011;2713;42.680;23.310;2023-06-10T00:45:41;8.23;;;7.27;;
5379;SDS011;2713;42.680;23.310;2023-06-10T00:48:08;10.47;;;7.90;;
5379;SDS011;2713;42.680;23.310;2023-06-10T00:50:35;8.07;;;7.27;;
5379;SDS011;2713;42.680;23.310;2023-06-10T00:53:05;9.03;;;7.60;;
5379;SDS011;2713;42.680;23.310;2023-06-10T00:55:32;8.13;;;7.47;;
5379;SDS011;2713;42.680;23.310;2023-06-10T00:57:59;8.50;;;7.37;;
5379;SDS011;2713;42.680;23.310;2023-06-10T01:00:26;8.30;;;7.50;;
5379;SDS011;2713;42.680;23.310;2023-06-10T01:02:53;8.30;;;7.50;;
5379;SDS011;2713;42.680;23.310;2023-06-10T01:05:20;8.43;;;7.57;;
5379;SDS011;2713;42.680;23.310;2023-06-10T01:07:52;10.23;;;8.20;;
5379;SDS011;2713;42.680;23.310;2023-06-10T01:10:29;9.50;;;8.60;;
5379;SDS011;2713;42.680;23.310;2023-06-10T01:13:00;11.07;;;8.50;;
5379;SDS011;2713;42.680;23.310;2023-06-10T01:15:29;10.80;;;8.87;;
5379;SDS011;2713;42.680;23.310;2023-06-10T01:17:56;11.73;;;8.90;;
5379;SDS011;2713;42.680;23.310;2023-06-10T01:20:25;10.63;;;9.50;;
5379;SDS011;2713;42.680;23.310;2023-06-10T01:22:56;10.27;;;8.77;;
5379;SDS011;2713;42.680;23.310;2023-06-10T01:25:23;9.40;;;8.50;;
5379;SDS011;2713;42.680;23.310;2023-06-10T01:27:54;9.83;;;8.93;;
5379;SDS011;2713;42.680;23.310;2023-06-10T01:30:29;10.47;;;8.20;;
5379;SDS011;2713;42.680;23.310;2023-06-10T01:33:02;9.60;;;8.70;;
5379;SDS011;2713;42.680;23.310;2023-06-10T01:35:33;10.53;;;8.93;;
5379;SDS011;2713;42.680;23.310;2023-06-10T01:38:05;12.37;;;8.80;;
5379;SDS011;2713;42.680;23.310;2023-06-10T01:40:33;10.13;;;8.50;;
5379;SDS011;2713;42.680;23.310;2023-06-10T01:43:00;9.80;;;8.80;;
5379;SDS011;2713;42.680;23.310;2023-06-10T01:45:27;10.50;;;9.40;;
5379;SDS011;2713;42.680;23.310;2023-06-10T01:47:54;8.93;;;8.13;;
5379;SDS011;2713;42.680;23.310;2023-06-10T01:50:21;9.27;;;8.37;;
5379;SDS011;2713;42.680;23.310;2023-06-10T01:52:48;9.53;;;8.53;;
5379;SDS011;2713;42.680;23.310;2023-06-10T01:55:16;10.03;;;8.53;;
5379;SDS011;2713;42.680;23.310;2023-06-10T01:57:43;9.03;;;8.13;;
5379;SDS011;2713;42.680;23.310;2023-06-10T02:00:10;10.33;;;9.23;;
5379;SDS011;2713;42.680;23.310;2023-06-10T02:02:41;9.83;;;8.57;;
5379;SDS011;2713;42.680;23.310;2023-06-10T02:05:08;11.23;;;8.17;;
5379;SDS011;2713;42.680;23.310;2023-06-10T02:07:35;10.67;;;8.63;;
5379;SDS011;2713;42.680;23.310;2023-06-10T02:10:01;14.03;;;8.40;;
5379;SDS011;2713;42.680;23.310;2023-06-10T02:12:30;9.07;;;8.07;;
5379;SDS011;2713;42.680;23.310;2023-06-10T02:14:57;8.80;;;7.90;;
5379;SDS011;2713;42.680;23.310;2023-06-10T02:17:24;9.40;;;8.33;;
5379;SDS011;2713;42.680;23.310;2023-06-10T02:19:51;7.70;;;7.00;;
5379;SDS011;2713;42.680;23.310;2023-06-10T02:22:19;9.77;;;7.67;;
5379;SDS011;2713;42.680;23.310;2023-06-10T02:24:46;10.93;;;8.13;;
5379;SDS011;2713;42.680;23.310;2023-06-10T02:27:14;8.53;;;7.60;;
5379;SDS011;2713;42.680;23.310;2023-06-10T02:29:42;8.83;;;7.93;;
5379;SDS011;2713;42.680;23.310;2023-06-10T02:32:10;8.20;;;7.50;;
5379;SDS011;2713;42.680;23.310;2023-06-10T02:34:37;12.47;;;7.53;;
5379;SDS011;2713;42.680;23.310;2023-06-10T02:37:05;9.30;;;8.20;;
5379;SDS011;2713;42.680;23.310;2023-06-10T02:39:32;11.00;;;8.00;;
5379;SDS011;2713;42.680;23.310;2023-06-10T02:42:01;7.90;;;7.20;;
5379;SDS011;2713;42.680;23.310;2023-06-10T02:44:28;11.60;;;8.50;;
5379;SDS011;2713;42.680;23.310;2023-06-10T02:46:56;9.90;;;8.90;;
5379;SDS011;2713;42.680;23.310;2023-06-10T02:49:23;11.07;;;8.27;;
5379;SDS011;2713;42.680;23.310;2023-06-10T02:51:53;8.70;;;7.90;;
5379;SDS011;2713;42.680;23.310;2023-06-10T02:54:22;9.10;;;7.80;;
5379;SDS011;2713;42.680;23.310;2023-06-10T02:56:50;9.10;;;8.20;;
5379;SDS011;2713;42.680;23.310;2023-06-10T02:59:21;9.00;;;8.10;;
5379;SDS011;2713;42.680;23.310;2023-06-10T03:01:48;11.27;;;8.70;;
5379;SDS011;2713;42.680;23.310;2023-06-10T03:04:16;8.97;;;8.07;;
5379;SDS011;2713;42.680;23.310;2023-06-10T03:06:52;11.57;;;8.97;;
5379;SDS011;2713;42.680;23.310;2023-06-10T03:09:24;9.37;;;8.33;;
5379;SDS011;2713;42.680;23.310;2023-06-10T03:11:55;8.93;;;8.03;;
5379;SDS011;2713;42.680;23.310;2023-06-10T03:14:22;8.90;;;8.10;;
5379;SDS011;2713;42.680;23.310;2023-06-10T03:16:50;8.90;;;8.03;;
5379;SDS011;2713;42.680;23.310;2023-06-10T03:19:20;10.10;;;8.50;;
5379;SDS011;2713;42.680;23.310;2023-06-10T03:21:57;11.00;;;8.93;;
5379;SDS011;2713;42.680;23.310;2023-06-10T03:24:36;10.53;;;9.40;;
5379;SDS011;2713;42.680;23.310;2023-06-10T03:27:06;10.13;;;9.10;;
5379;SDS011;2713;42.680;23.310;2023-06-10T03:29:36;11.00;;;8.87;;
5379;SDS011;2713;42.680;23.310;2023-06-10T03:32:04;9.40;;;8.50;;
5379;SDS011;2713;42.680;23.310;2023-06-10T03:34:33;9.73;;;8.73;;
5379;SDS011;2713;42.680;23.310;2023-06-10T03:37:01;10.93;;;9.07;;
5379;SDS011;2713;42.680;23.310;2023-06-10T03:39:28;10.50;;;9.40;;
5379;SDS011;2713;42.680;23.310;2023-06-10T03:41:57;11.07;;;9.50;;
5379;SDS011;2713;42.680;23.310;2023-06-10T03:44:25;13.37;;;10.33;;
5379;SDS011;2713;42.680;23.310;2023-06-10T03:46:52;12.03;;;9.40;;
5379;SDS011;2713;42.680;23.310;2023-06-10T03:49:20;11.27;;;8.70;;
5379;SDS011;2713;42.680;23.310;2023-06-10T03:51:55;9.20;;;8.40;;
5379;SDS011;2713;42.680;23.310;2023-06-10T03:54:22;10.63;;;8.57;;
5379;SDS011;2713;42.680;23.310;2023-06-10T03:56:49;10.60;;;8.57;;
5379;SDS011;2713;42.680;23.310;2023-06-10T03:59:16;10.57;;;9.47;;
5379;SDS011;2713;42.680;23.310;2023-06-10T04:01:42;11.80;;;9.60;;
5379;SDS011;2713;42.680;23.310;2023-06-10T04:04:10;9.60;;;8.60;;
5379;SDS011;2713;42.680;23.310;2023-06-10T04:06:38;10.53;;;8.67;;
5379;SDS011;2713;42.680;23.310;2023-06-10T04:09:06;11.23;;;9.30;;
5379;SDS011;2713;42.680;23.310;2023-06-10T04:11:36;10.13;;;9.13;;
5379;SDS011;2713;42.680;23.310;2023-06-10T04:14:02;10.27;;;9.33;;
5379;SDS011;2713;42.680;23.310;2023-06-10T04:16:30;9.93;;;8.93;;
5379;SDS011;2713;42.680;23.310;2023-06-10T04:18:58;12.90;;;9.07;;
5379;SDS011;2713;42.680;23.310;2023-06-10T04:21:25;11.10;;;9.87;;
5379;SDS011;2713;42.680;23.310;2023-06-10T04:23:52;11.30;;;9.77;;
5379;SDS011;2713;42.680;23.310;2023-06-10T04:26:21;11.33;;;9.50;;
5379;SDS011;2713;42.680;23.310;2023-06-10T04:28:48;11.30;;;9.93;;
5379;SDS011;2713;42.680;23.310;2023-06-10T04:31:15;12.03;;;10.70;;
5379;SDS011;2713;42.680;23.310;2023-06-10T04:33:42;12.80;;;10.47;;
5379;SDS011;2713;42.680;23.310;2023-06-10T04:36:10;11.97;;;10.50;;
5379;SDS011;2713;42.680;23.310;2023-06-10T04:38:37;12.80;;;11.37;;
5379;SDS011;2713;42.680;23.310;2023-06-10T04:41:05;12.10;;;10.87;;
5379;SDS011;2713;42.680;23.310;2023-06-10T04:43:35;13.77;;;10.90;;
5379;SDS011;2713;42.680;23.310;2023-06-10T04:46:02;14.70;;;10.00;;
5379;SDS011;2713;42.680;23.310;2023-06-10T04:48:28;13.93;;;10.80;;
5379;SDS011;2713;42.680;23.310;2023-06-10T04:50:55;11.90;;;10.67;;
5379;SDS011;2713;42.680;23.310;2023-06-10T04:53:22;11.50;;;10.40;;
5379;SDS011;2713;42.680;23.310;2023-06-10T04:55:49;12.53;;;10.90;;
5379;SDS011;2713;42.680;23.310;2023-06-10T04:58:16;13.70;;;10.87;;
5379;SDS011;2713;42.680;23.310;2023-06-10T05:00:44;11.93;;;10.50;;
5379;SDS011;2713;42.680;23.310;2023-06-10T05:03:11;20.83;;;11.60;;
5379;SDS011;2713;42.680;23.310;2023-06-10T05:05:37;14.83;;;11.23;;
5379;SDS011;2713;42.680;23.310;2023-06-10T05:08:04;13.07;;;10.63;;
5379;SDS011;2713;42.680;23.310;2023-06-10T05:10:31;10.87;;;9.87;;
5379;SDS011;2713;42.680;23.310;2023-06-10T05:12:59;12.17;;;10.87;;
5379;SDS011;2713;42.680;23.310;2023-06-10T05:15:26;13.20;;;10.40;;
5379;SDS011;2713;42.680;23.310;2023-06-10T05:17:55;10.97;;;9.53;;
5379;SDS011;2713;42.680;23.310;2023-06-10T05:20:22;11.43;;;10.27;;
5379;SDS011;2713;42.680;23.310;2023-06-10T05:22:50;13.13;;;10.73;;
5379;SDS011;2713;42.680;23.310;2023-06-10T05:25:17;13.53;;;10.03;;
5379;SDS011;2713;42.680;23.310;2023-06-10T05:27:44;10.37;;;9.23;;
5379;SDS011;2713;42.680;23.310;2023-06-10T05:30:11;11.57;;;9.57;;
5379;SDS011;2713;42.680;23.310;2023-06-10T05:32:38;10.40;;;9.40;;
5379;SDS011;2713;42.680;23.310;2023-06-10T05:35:07;10.80;;;9.70;;
5379;SDS011;2713;42.680;23.310;2023-06-10T05:37:34;11.73;;;9.57;;
5379;SDS011;2713;42.680;23.310;2023-06-10T05:40:02;12.47;;;11.17;;
5379;SDS011;2713;42.680;23.310;2023-06-10T05:42:30;13.60;;;11.37;;
5379;SDS011;2713;42.680;23.310;2023-06-10T05:44:57;13.00;;;11.00;;
5379;SDS011;2713;42.680;23.310;2023-06-10T05:47:24;10.87;;;9.77;;
5379;SDS011;2713;42.680;23.310;2023-06-10T05:49:50;13.30;;;9.87;;
5379;SDS011;2713;42.680;23.310;2023-06-10T05:52:18;10.70;;;9.13;;
5379;SDS011;2713;42.680;23.310;2023-06-10T05:54:45;15.10;;;10.30;;
5379;SDS011;2713;42.680;23.310;2023-06-10T05:57:12;14.57;;;10.27;;
5379;SDS011;2713;42.680;23.310;2023-06-10T05:59:39;11.43;;;10.23;;
5379;SDS011;2713;42.680;23.310;2023-06-10T06:02:06;11.77;;;10.00;;
5379;SDS011;2713;42.680;23.310;2023-06-10T06:04:33;10.90;;;9.77;;
5379;SDS011;2713;42.680;23.310;2023-06-10T06:07:00;10.57;;;9.57;;
5379;SDS011;2713;42.680;23.310;2023-06-10T06:09:28;11.57;;;10.07;;
5379;SDS011;2713;42.680;23.310;2023-06-10T06:11:55;12.30;;;9.90;;
5379;SDS011;2713;42.680;23.310;2023-06-10T06:14:22;11.10;;;9.27;;
5379;SDS011;2713;42.680;23.310;2023-06-10T06:16:48;10.03;;;9.03;;
5379;SDS011;2713;42.680;23.310;2023-06-10T06:19:15;10.70;;;9.43;;
5379;SDS011;2713;42.680;23.310;2023-06-10T06:21:42;10.40;;;9.30;;
5379;SDS011;2713;42.680;23.310;2023-06-10T06:24:08;9.90;;;8.90;;
5379;SDS011;2713;42.680;23.310;2023-06-10T06:26:37;11.70;;;9.40;;
5379;SDS011;2713;42.680;23.310;2023-06-10T06:29:03;9.70;;;8.70;;
5379;SDS011;2713;42.680;23.310;2023-06-10T06:31:30;9.90;;;8.60;;
5379;SDS011;2713;42.680;23.310;2023-06-10T06:33:57;9.23;;;8.30;;
5379;SDS011;2713;42.680;23.310;2023-06-10T06:36:24;9.83;;;8.40;;
5379;SDS011;2713;42.680;23.310;2023-06-10T06:38:51;13.63;;;8.20;;
5379;SDS011;2713;42.680;23.310;2023-06-10T06:41:19;10.07;;;7.10;;
5379;SDS011;2713;42.680;23.310;2023-06-10T06:43:48;8.07;;;7.27;;
5379;SDS011;2713;42.680;23.310;2023-06-10T06:46:23;12.63;;;8.03;;
5379;SDS011;2713;42.680;23.310;2023-06-10T06:48:49;8.53;;;7.57;;
5379;SDS011;2713;42.680;23.310;2023-06-10T06:51:16;9.53;;;8.53;;
5379;SDS011;2713;42.680;23.310;2023-06-10T06:53:43;8.90;;;8.00;;
5379;SDS011;2713;42.680;23.310;2023-06-10T06:56:11;11.07;;;9.60;;
5379;SDS011;2713;42.680;23.310;2023-06-10T06:58:38;11.33;;;10.13;;
5379;SDS011;2713;42.680;23.310;2023-06-10T07:01:06;9.37;;;8.47;;
5379;SDS011;2713;42.680;23.310;2023-06-10T07:03:33;14.43;;;8.57;;
5379;SDS011;2713;42.680;23.310;2023-06-10T07:06:00;10.67;;;8.90;;
5379;SDS011;2713;42.680;23.310;2023-06-10T07:08:27;11.70;;;9.30;;
5379;SDS011;2713;42.680;23.310;2023-06-10T07:10:54;9.67;;;8.50;;
5379;SDS011;2713;42.680;23.310;2023-06-10T07:13:20;9.70;;;8.70;;
5379;SDS011;2713;42.680;23.310;2023-06-10T07:15:47;10.70;;;9.40;;
5379;SDS011;2713;42.680;23.310;2023-06-10T07:18:16;9.03;;;8.13;;
5379;SDS011;2713;42.680;23.310;2023-06-10T07:20:43;10.60;;;9.13;;
5379;SDS011;2713;42.680;23.310;2023-06-10T07:23:10;10.73;;;9.17;;
5379;SDS011;2713;42.680;23.310;2023-06-10T07:25:37;9.83;;;8.30;;
5379;SDS011;2713;42.680;23.310;2023-06-10T07:28:03;10.00;;;8.33;;
5379;SDS011;2713;42.680;23.310;2023-06-10T07:30:30;9.87;;;8.60;;
5379;SDS011;2713;42.680;23.310;2023-06-10T07:32:57;9.80;;;7.70;;
5379;SDS011;2713;42.680;23.310;2023-06-10T07:35:25;7.40;;;6.70;;
5379;SDS011;2713;42.680;23.310;2023-06-10T07:37:52;9.90;;;7.30;;
5379;SDS011;2713;42.680;23.310;2023-06-10T07:40:19;7.03;;;6.33;;
5379;SDS011;2713;42.680;23.310;2023-06-10T07:42:46;6.70;;;6.10;;
5379;SDS011;2713;42.680;23.310;2023-06-10T07:45:13;6.90;;;6.30;;
5379;SDS011;2713;42.680;23.310;2023-06-10T07:47:39;8.13;;;7.13;;
5379;SDS011;2713;42.680;23.310;2023-06-10T07:50:06;8.80;;;6.80;;
5379;SDS011;2713;42.680;23.310;2023-06-10T07:52:35;7.23;;;6.00;;
5379;SDS011;2713;42.680;23.310;2023-06-10T07:55:01;7.53;;;6.80;;
5379;SDS011;2713;42.680;23.310;2023-06-10T07:57:28;7.60;;;6.90;;
5379;SDS011;2713;42.680;23.310;2023-06-10T07:59:56;7.80;;;7.00;;
5379;SDS011;2713;42.680;23.310;2023-06-10T08:02:25;7.00;;;6.30;;
5379;SDS011;2713;42.680;23.310;2023-06-10T08:04:52;7.83;;;7.00;;
5379;SDS011;2713;42.680;23.310;2023-06-10T08:07:18;7.67;;;6.27;;
5379;SDS011;2713;42.680;23.310;2023-06-10T08:09:46;6.20;;;5.60;;
5379;SDS011;2713;42.680;23.310;2023-06-10T08:12:14;6.77;;;6.03;;
5379;SDS011;2713;42.680;23.310;2023-06-10T08:14:43;6.00;;;5.40;;
5379;SDS011;2713;42.680;23.310;2023-06-10T08:17:10;8.33;;;6.97;;
5379;SDS011;2713;42.680;23.310;2023-06-10T08:19:37;8.77;;;7.00;;
5379;SDS011;2713;42.680;23.310;2023-06-10T08:22:04;9.10;;;6.20;;
5379;SDS011;2713;42.680;23.310;2023-06-10T08:24:31;6.90;;;5.23;;
5379;SDS011;2713;42.680;23.310;2023-06-10T08:26:59;5.57;;;5.07;;
5379;SDS011;2713;42.680;23.310;2023-06-10T08:29:26;6.00;;;5.40;;
5379;SDS011;2713;42.680;23.310;2023-06-10T08:31:52;16.93;;;6.20;;
5379;SDS011;2713;42.680;23.310;2023-06-10T08:34:19;6.43;;;5.67;;
5379;SDS011;2713;42.680;23.310;2023-06-10T08:36:46;11.50;;;6.80;;
5379;SDS011;2713;42.680;23.310;2023-06-10T08:39:18;6.33;;;5.73;;
5379;SDS011;2713;42.680;23.310;2023-06-10T08:41:47;6.13;;;5.53;;
5379;SDS011;2713;42.680;23.310;2023-06-10T08:44:27;6.10;;;5.50;;
5379;SDS011;2713;42.680;23.310;2023-06-10T08:46:55;5.50;;;5.00;;
5379;SDS011;2713;42.680;23.310;2023-06-10T08:49:26;6.00;;;5.50;;
5379;SDS011;2713;42.680;23.310;2023-06-10T08:51:58;5.30;;;4.80;;
5379;SDS011;2713;42.680;23.310;2023-06-10T08:54:27;5.20;;;4.70;;
5379;SDS011;2713;42.680;23.310;2023-06-10T08:56:56;6.27;;;5.40;;
5379;SDS011;2713;42.680;23.310;2023-06-10T08:59:28;6.83;;;6.13;;
5379;SDS011;2713;42.680;23.310;2023-06-10T09:01:55;5.70;;;5.20;;
5379;SDS011;2713;42.680;23.310;2023-06-10T09:04:23;14.67;;;6.40;;
5379;SDS011;2713;42.680;23.310;2023-06-10T09:06:51;5.97;;;5.37;;
5379;SDS011;2713;42.680;23.310;2023-06-10T09:09:19;5.10;;;4.70;;
5379;SDS011;2713;42.680;23.310;2023-06-10T09:11:46;7.40;;;6.60;;
5379;SDS011;2713;42.680;23.310;2023-06-10T09:14:13;8.07;;;5.60;;
5379;SDS011;2713;42.680;23.310;2023-06-10T09:16:43;5.77;;;5.27;;
5379;SDS011;2713;42.680;23.310;2023-06-10T09:19:11;6.00;;;5.40;;
5379;SDS011;2713;42.680;23.310;2023-06-10T09:21:40;6.53;;;5.93;;
5379;SDS011;2713;42.680;23.310;2023-06-10T09:24:07;5.27;;;4.73;;
5379;SDS011;2713;42.680;23.310;2023-06-10T09:26:33;6.20;;;5.60;;
5379;SDS011;2713;42.680;23.310;2023-06-10T09:29:03;5.53;;;5.03;;
5379;SDS011;2713;42.680;23.310;2023-06-10T09:31:32;7.20;;;6.50;;
5379;SDS011;2713;42.680;23.310;2023-06-10T09:34:06;7.70;;;5.97;;
5379;SDS011;2713;42.680;23.310;2023-06-10T09:36:34;7.17;;;5.13;;
5379;SDS011;2713;42.680;23.310;2023-06-10T09:39:02;6.10;;;5.60;;
5379;SDS011;2713;42.680;23.310;2023-06-10T09:41:32;7.27;;;5.50;;
5379;SDS011;2713;42.680;23.310;2023-06-10T09:44:00;5.73;;;5.27;;
5379;SDS011;2713;42.680;23.310;2023-06-10T09:46:30;5.67;;;5.20;;
5379;SDS011;2713;42.680;23.310;2023-06-10T09:48:58;6.80;;;6.20;;
5379;SDS011;2713;42.680;23.310;2023-06-10T09:51:26;7.23;;;6.37;;
5379;SDS011;2713;42.680;23.310;2023-06-10T09:53:53;10.20;;;5.90;;
5379;SDS011;2713;42.680;23.310;2023-06-10T09:56:20;5.80;;;5.30;;
5379;SDS011;2713;42.680;23.310;2023-06-10T09:58:49;7.07;;;6.37;;
5379;SDS011;2713;42.680;23.310;2023-06-10T10:01:19;5.83;;;5.30;;
5379;SDS011;2713;42.680;23.310;2023-06-10T10:03:47;10.80;;;8.40;;
5379;SDS011;2713;42.680;23.310;2023-06-10T10:06:15;9.53;;;6.03;;
5379;SDS011;2713;42.680;23.310;2023-06-10T10:08:45;5.50;;;5.00;;
5379;SDS011;2713;42.680;23.310;2023-06-10T10:11:13;4.83;;;4.43;;
5379;SDS011;2713;42.680;23.310;2023-06-10T10:13:42;4.17;;;3.80;;
5379;SDS011;2713;42.680;23.310;2023-06-10T10:16:14;3.97;;;3.43;;
5379;SDS011;2713;42.680;23.310;2023-06-10T10:18:43;4.03;;;3.70;;
5379;SDS011;2713;42.680;23.310;2023-06-10T10:21:15;4.97;;;4.47;;
5379;SDS011;2713;42.680;23.310;2023-06-10T10:23:53;4.80;;;4.30;;
5379;SDS011;2713;42.680;23.310;2023-06-10T10:26:26;4.57;;;4.17;;
5379;SDS011;2713;42.680;23.310;2023-06-10T10:28:56;4.60;;;4.20;;
5379;SDS011;2713;42.680;23.310;2023-06-10T10:31:32;4.47;;;4.07;;
5379;SDS011;2713;42.680;23.310;2023-06-10T10:34:02;4.53;;;4.23;;
5379;SDS011;2713;42.680;23.310;2023-06-10T10:36:33;5.77;;;5.07;;
5379;SDS011;2713;42.680;23.310;2023-06-10T10:39:02;6.63;;;4.80;;
5379;SDS011;2713;42.680;23.310;2023-06-10T10:41:31;5.07;;;4.67;;
5379;SDS011;2713;42.680;23.310;2023-06-10T10:43:59;7.20;;;4.90;;
5379;SDS011;2713;42.680;23.310;2023-06-10T10:46:27;6.00;;;5.37;;
5379;SDS011;2713;42.680;23.310;2023-06-10T10:48:54;5.07;;;4.70;;
5379;SDS011;2713;42.680;23.310;2023-06-10T10:51:22;5.67;;;5.07;;
5379;SDS011;2713;42.680;23.310;2023-06-10T10:56:38;6.10;;;5.50;;
5379;SDS011;2713;42.680;23.310;2023-06-10T10:59:05;5.57;;;5.07;;
5379;SDS011;2713;42.680;23.310;2023-06-10T11:01:39;6.27;;;5.60;;
5379;SDS011;2713;42.680;23.310;2023-06-10T11:04:07;5.77;;;5.27;;
5379;SDS011;2713;42.680;23.310;2023-06-10T11:06:34;5.30;;;4.90;;
5379;SDS011;2713;42.680;23.310;2023-06-10T11:09:01;5.17;;;4.73;;
5379;SDS011;2713;42.680;23.310;2023-06-10T11:11:53;5.27;;;4.87;;
5379;SDS011;2713;42.680;23.310;2023-06-10T11:14:26;5.40;;;4.90;;
5379;SDS011;2713;42.680;23.310;2023-06-10T11:16:56;5.00;;;4.50;;
5379;SDS011;2713;42.680;23.310;2023-06-10T11:19:33;4.83;;;4.43;;
5379;SDS011;2713;42.680;23.310;2023-06-10T11:22:01;5.33;;;4.07;;
5379;SDS011;2713;42.680;23.310;2023-06-10T11:24:30;5.47;;;5.00;;
5379;SDS011;2713;42.680;23.310;2023-06-10T11:27:16;6.00;;;5.50;;
5379;SDS011;2713;42.680;23.310;2023-06-10T11:29:57;6.63;;;5.60;;
5379;SDS011;2713;42.680;23.310;2023-06-10T11:32:25;5.43;;;5.03;;
5379;SDS011;2713;42.680;23.310;2023-06-10T11:34:56;5.80;;;5.27;;
5379;SDS011;2713;42.680;23.310;2023-06-10T11:37:23;7.23;;;5.87;;
5379;SDS011;2713;42.680;23.310;2023-06-10T11:39:52;7.00;;;6.00;;
5379;SDS011;2713;42.680;23.310;2023-06-10T11:42:20;6.97;;;6.37;;
5379;SDS011;2713;42.680;23.310;2023-06-10T11:44:48;7.50;;;5.90;;
5379;SDS011;2713;42.680;23.310;2023-06-10T11:47:15;8.37;;;6.93;;
5379;SDS011;2713;42.680;23.310;2023-06-10T11:49:41;7.43;;;6.73;;
5379;SDS011;2713;42.680;23.310;2023-06-10T11:52:08;8.27;;;6.73;;
5379;SDS011;2713;42.680;23.310;2023-06-10T11:54:35;7.47;;;6.70;;
5379;SDS011;2713;42.680;23.310;2023-06-10T11:57:04;6.27;;;5.67;;
5379;SDS011;2713;42.680;23.310;2023-06-10T11:59:33;6.60;;;6.00;;
5379;SDS011;2713;42.680;23.310;2023-06-10T12:02:00;7.43;;;6.47;;
5379;SDS011;2713;42.680;23.310;2023-06-10T12:04:27;6.70;;;6.10;;
5379;SDS011;2713;42.680;23.310;2023-06-10T12:06:53;5.70;;;5.20;;
5379;SDS011;2713;42.680;23.310;2023-06-10T12:09:21;5.80;;;5.30;;
5379;SDS011;2713;42.680;23.310;2023-06-10T12:11:51;6.20;;;5.23;;
5379;SDS011;2713;42.680;23.310;2023-06-10T12:17:22;5.17;;;4.70;;
5379;SDS011;2713;42.680;23.310;2023-06-10T12:19:50;4.63;;;4.23;;
5379;SDS011;2713;42.680;23.310;2023-06-10T12:22:17;7.10;;;6.40;;
5379;SDS011;2713;42.680;23.310;2023-06-10T12:24:44;6.23;;;5.00;;
5379;SDS011;2713;42.680;23.310;2023-06-10T12:27:12;4.60;;;4.30;;
5379;SDS011;2713;42.680;23.310;2023-06-10T12:29:39;4.70;;;4.30;;
5379;SDS011;2713;42.680;23.310;2023-06-10T12:32:08;4.63;;;4.13;;
5379;SDS011;2713;42.680;23.310;2023-06-10T12:34:36;5.43;;;4.93;;
5379;SDS011;2713;42.680;23.310;2023-06-10T12:37:03;4.80;;;4.40;;
5379;SDS011;2713;42.680;23.310;2023-06-10T12:39:31;5.90;;;5.30;;
5379;SDS011;2713;42.680;23.310;2023-06-10T12:41:59;6.10;;;4.83;;
5379;SDS011;2713;42.680;23.310;2023-06-10T12:44:32;5.70;;;4.87;;
5379;SDS011;2713;42.680;23.310;2023-06-10T12:47:01;5.07;;;4.67;;
5379;SDS011;2713;42.680;23.310;2023-06-10T12:49:34;4.40;;;4.00;;
5379;SDS011;2713;42.680;23.310;2023-06-10T12:52:01;4.90;;;4.50;;
5379;SDS011;2713;42.680;23.310;2023-06-10T12:54:28;5.40;;;4.90;;
5379;SDS011;2713;42.680;23.310;2023-06-10T12:56:55;5.00;;;4.60;;
5379;SDS011;2713;42.680;23.310;2023-06-10T12:59:22;5.23;;;4.73;;
5379;SDS011;2713;42.680;23.310;2023-06-10T13:01:50;5.00;;;4.50;;
5379;SDS011;2713;42.680;23.310;2023-06-10T13:04:17;5.20;;;4.50;;
5379;SDS011;2713;42.680;23.310;2023-06-10T13:06:46;5.60;;;4.60;;
5379;SDS011;2713;42.680;23.310;2023-06-10T13:09:14;6.50;;;4.57;;
5379;SDS011;2713;42.680;23.310;2023-06-10T13:11:41;4.83;;;4.43;;
5379;SDS011;2713;42.680;23.310;2023-06-10T13:14:09;5.07;;;4.57;;
5379;SDS011;2713;42.680;23.310;2023-06-10T13:16:37;4.50;;;4.20;;
5379;SDS011;2713;42.680;23.310;2023-06-10T13:19:04;5.47;;;4.40;;
5379;SDS011;2713;42.680;23.310;2023-06-10T13:21:31;8.80;;;5.17;;
5379;SDS011;2713;42.680;23.310;2023-06-10T13:24:00;6.10;;;5.50;;
5379;SDS011;2713;42.680;23.310;2023-06-10T13:26:27;10.90;;;5.60;;
5379;SDS011;2713;42.680;23.310;2023-06-10T13:28:54;15.53;;;5.80;;
5379;SDS011;2713;42.680;23.310;2023-06-10T13:31:20;6.87;;;5.33;;
5379;SDS011;2713;42.680;23.310;2023-06-10T13:33:47;6.50;;;5.57;;
5379;SDS011;2713;42.680;23.310;2023-06-10T13:36:14;7.83;;;6.10;;
5379;SDS011;2713;42.680;23.310;2023-06-10T13:38:41;8.43;;;5.33;;
5379;SDS011;2713;42.680;23.310;2023-06-10T13:41:09;8.60;;;6.10;;
5379;SDS011;2713;42.680;23.310;2023-06-10T13:43:37;6.67;;;5.43;;
5379;SDS011;2713;42.680;23.310;2023-06-10T13:46:04;7.43;;;6.17;;
5379;SDS011;2713;42.680;23.310;2023-06-10T13:48:31;6.00;;;5.20;;
5379;SDS011;2713;42.680;23.310;2023-06-10T13:50:58;8.13;;;5.97;;
5379;SDS011;2713;42.680;23.310;2023-06-10T13:53:25;7.70;;;5.90;;
5379;SDS011;2713;42.680;23.310;2023-06-10T13:55:52;6.23;;;5.23;;
5379;SDS011;2713;42.680;23.310;2023-06-10T13:58:20;6.53;;;5.93;;
5379;SDS011;2713;42.680;23.310;2023-06-10T14:00:47;8.07;;;5.63;;
5379;SDS011;2713;42.680;23.310;2023-06-10T14:03:14;7.57;;;5.77;;
5379;SDS011;2713;42.680;23.310;2023-06-10T14:05:40;6.10;;;5.23;;
5379;SDS011;2713;42.680;23.310;2023-06-10T14:08:07;6.90;;;6.10;;
5379;SDS011;2713;42.680;23.310;2023-06-10T14:10:34;6.80;;;5.83;;
5379;SDS011;2713;42.680;23.310;2023-06-10T14:13:01;6.03;;;5.43;;
5379;SDS011;2713;42.680;23.310;2023-06-10T14:15:29;6.60;;;5.73;;
5379;SDS011;2713;42.680;23.310;2023-06-10T14:17:57;7.50;;;5.57;;
5379;SDS011;2713;42.680;23.310;2023-06-10T14:20:24;6.23;;;5.50;;
5379;SDS011;2713;42.680;23.310;2023-06-10T14:22:52;7.43;;;5.93;;
5379;SDS011;2713;42.680;23.310;2023-06-10T14:25:18;5.90;;;5.40;;
5379;SDS011;2713;42.680;23.310;2023-06-10T14:27:45;8.07;;;5.73;;
5379;SDS011;2713;42.680;23.310;2023-06-10T14:30:12;5.60;;;5.10;;
5379;SDS011;2713;42.680;23.310;2023-06-10T14:32:41;5.63;;;5.00;;
5379;SDS011;2713;42.680;23.310;2023-06-10T14:35:08;7.17;;;5.50;;
5379;SDS011;2713;42.680;23.310;2023-06-10T14:37:35;7.80;;;5.30;;
5379;SDS011;2713;42.680;23.310;2023-06-10T14:40:03;6.73;;;5.30;;
5379;SDS011;2713;42.680;23.310;2023-06-10T14:42:31;6.10;;;5.50;;
5379;SDS011;2713;42.680;23.310;2023-06-10T14:44:58;6.47;;;5.80;;
5379;SDS011;2713;42.680;23.310;2023-06-10T14:47:25;5.67;;;5.03;;
5379;SDS011;2713;42.680;23.310;2023-06-10T14:49:53;5.57;;;5.00;;
5379;SDS011;2713;42.680;23.310;2023-06-10T14:52:19;6.10;;;5.50;;
5379;SDS011;2713;42.680;23.310;2023-06-10T14:54:46;5.97;;;5.47;;
5379;SDS011;2713;42.680;23.310;2023-06-10T14:57:13;8.47;;;5.30;;
5379;SDS011;2713;42.680;23.310;2023-06-10T14:59:40;5.57;;;5.07;;
5379;SDS011;2713;42.680;23.310;2023-06-10T15:02:07;5.47;;;5.07;;
5379;SDS011;2713;42.680;23.310;2023-06-10T15:04:33;6.63;;;5.13;;
5379;SDS011;2713;42.680;23.310;2023-06-10T15:07:02;5.57;;;5.07;;